VUELOS DE BAJO NIVEL DESDE SUPERFICIE HASTA 24,000 PIES.

 
VALIDO DESDE 251200Z...…………………….…………………HASTA 260000Z

 

SANTO DOMINGO FIR...HISPANIOLA E OF 65W...SCT025 SCT-BKN050 TOP ABV FL240. ISOL SHRA. OTLK...VFR. W OF 20N71W-16N71W-13N77W...SCT020 SCT-BKN040 TOP LYRD TO FL220. ISOL SHRA/TSRA. OTLK...VFR TSRA. RMNDR...SCT020 BKN-OVC060 TOP ABV FL240. OCNL BKN020 OVC060 VIS 3-5SM RA BR. WDLY SCT TSRA HISPANIOLA...ISOL TSRA RMNDR. OTLK...MVFR CIG RA TSRA BR.

 

 

5,000 FT.

10,000 FT.

18,000 FT.

24,000 FT.

MDSD

0415KT+15ºC

0000KT+05ºC

2420KT-11ºC

2640KT-19ºC

MTPP

0215KT+15ºC

0000KT+05ºC

2520KT-11ºC

2740KT-19ºC

TJSJ

2030KT+15ºC

2420KT+07ºC

2220KT-10ºC

2450KT-18ºC

 

 

 

 

 

TAF

TAF MDPP 251000Z 2512/2612 00000KT 7000 -RA BKN018 OVC070  BECMG 2513/2515 12012KT TEMPO 2516/2522  8000 –RA SCT020 BKN070=

TAF MDST 251000Z 2512 VRB03KT 9999 SCT016 BKN070 TEMPO 2512/2518 7000 -RA SCT014 OVC070 BECMG 2517/2519 02008KT   

TAF MDPC 251000Z 2512/2612 00000KT 9999 BKN016 SCT080 TEMPO 2518/2520 6000 -RA BKN015 SCT070 BECMG 2513/2515 02010KT= 

TAF MDBH 251000Z 2512/2612 27008KT 9999 SCT016 BECMG 2517/2519 13012KT=

TAF MDJB 251000Z 2512/2612 36010KT 9999 SCT018 BKN070 TEMPO 2518/2600 6000 -RA SCT016 BKN070=

TAF MDSD 251000Z 2512/2612 35008KT 9999 SCT018 BKN070 TEMPO 2518/2600 6000 -RA BKN016 BKN070=

TAF MDLR 251000Z 2512/2612 00000KT 9999 SCT016 SCT070 BECMG 2514/2516 05010KT TEMPO 2518/2600 8000 -RA SCT016 BKN070=

TAF MDCY 251000Z 2512/2612 00000KT 9999 SCT016 BKN070 BECMG 2513/2515 04010KT TEMPO 2516/2522 6000 -RA BKN012 OVC070=

 

KMIA 251120Z 2512/2612 08010KT P6SM VCSH FEW030 SCT040 FM251400 10015G24KT P6SM FEW050 SCT100 SCT250 FM260000 10008KT P6SM SCT050 BKN100 

KJFK 251122Z 2512/2618 25012KT P6SM FEW070 BKN150 FM251400 VRB05KT P6SM SCT070 OVC100 FM251800 03009KT P6SM OVC035 TEMPO 2518/2521 6SM -RA BKN025 FM252100 04010KT 5SM -RA BR OVC010 FM260100 06010KT 4SM -DZ BR OVC007 FM261200 08013KT 5SM BR VCSH OVC012 

TJSJ 250520Z 2506/2606 13004KT P6SM VCSH FEW025 SCT060 FM251530 VRB10KT P6SM VCSH SCT025 BKN040 FM252300 11005KT P6SM VCSH SCT025 BKN060 

MKJP 251115Z 2512/2612 35005KT 9999 FEW020 FEW022CB SCT030 BECMG 2515/2517 18014KT SCT020 PR0B30 TEMPO 2519/2521 SHRA SCT020 FEW022CB BKN030 BECMG 2600/2602 34005KT FEW020 FEW022CB 

MUHA 251100Z 2512/2612 09009KT 9000 FEW030 BECMG 2517/2519 06013KT SCT030 BECMG 2601/2603 05005KT FEW030 

TAF MUGM 2507/2607 33008KT 9999 FEW030 QNH2998INS BECMG 2516/2518 09012KT 9999 VCSH SCT035 BKN090 QNH2997INS BECMG 2523/2601 35007KT 9999 SCT030 QNH2998INS T21/2511Z T29/2517Z FN00154 

TAF TNCC 250935Z 2512/2612 10008KT 9999 SCT018 PROB30 TEMPO 2512/2518 5000 SHRA BKN015 BKN040 

TAF TFFR 251100Z 2512/2612 11018KT 9999 SCT035 PROB30 TEMPO 2514/2522 -SHRA SCT018TCU BECMG 2600/2602 08006KT BECMG 2610/2612 VRB04KT

 

PREPARADO POR: ELIZABETH FELIZ B. 25 DE MARZO DEL 2017-